Time;durP1;ratioP1;P1;durP2;ratioP2;P2;SDS_P1;SDS_P2;PMS_P1;PMS_P2;Temp;Humidity;BMP_temperature;BMP_pressure;BME280_temperature;BME280_humidity;BME280_pressure;Samples;Min_cycle;Max_cycle;Signal;HPM_P1;HPM_P2
2022/07/14 00:01:45;;;;;;;2.45;0.88;;;20.00;67.90;;;;;;5109158;28;20107;-63
2022/07/14 00:04:11;;;;;;;3.28;0.80;;;20.20;66.20;;;;;;5114744;28;20035;-63
2022/07/14 00:06:37;;;;;;;1.45;0.80;;;20.40;66.30;;;;;;5110078;28;20327;-65
2022/07/14 00:09:03;;;;;;;3.15;0.90;;;20.40;67.10;;;;;;5107533;28;20020;-63
2022/07/14 00:11:29;;;;;;;2.97;0.80;;;20.40;67.10;;;;;;5103906;28;20030;-64
2022/07/14 00:13:56;;;;;;;2.67;0.90;;;20.30;68.90;;;;;;5112026;28;20309;-63
2022/07/14 00:16:22;;;;;;;2.55;0.80;;;20.30;68.90;;;;;;5107505;28;20019;-64
2022/07/14 00:18:48;;;;;;;3.55;0.90;;;20.20;70.70;;;;;;5115019;28;20024;-64
2022/07/14 00:21:15;;;;;;;3.05;0.90;;;20.00;70.30;;;;;;5112693;28;20062;-63
2022/07/14 00:23:42;;;;;;;1.70;0.80;;;20.00;70.70;;;;;;5107737;28;20032;-64
2022/07/14 00:26:08;;;;;;;1.90;0.80;;;19.90;70.80;;;;;;5113225;28;20040;-64
2022/07/14 00:28:34;;;;;;;5.00;0.98;;;20.00;69.00;;;;;;5114815;28;20035;-64
2022/07/14 00:31:03;;;;;;;4.88;0.90;;;20.00;69.60;;;;;;5112807;28;20015;-64
2022/07/14 00:33:32;;;;;;;3.25;0.90;;;20.00;69.80;;;;;;5118163;27;20023;-64
2022/07/14 00:35:58;;;;;;;3.75;0.90;;;20.00;70.20;;;;;;5113558;27;20089;-64
2022/07/14 00:38:24;;;;;;;4.50;1.10;;;20.00;70.50;;;;;;5115733;27;20305;-64
2022/07/14 00:40:50;;;;;;;4.22;1.00;;;20.00;71.20;;;;;;5114301;27;20038;-64
2022/07/14 00:43:15;;;;;;;2.28;0.90;;;19.90;72.10;;;;;;5108178;28;20089;-64
2022/07/14 00:45:41;;;;;;;3.72;1.15;;;19.80;71.70;;;;;;5108835;28;20305;-63
2022/07/14 00:48:07;;;;;;;2.17;0.90;;;19.90;69.70;;;;;;5118211;27;20066;-64
2022/07/14 00:50:33;;;;;;;2.28;1.00;;;20.10;68.20;;;;;;5113191;27;20016;-63
2022/07/14 00:53:06;;;;;;;3.40;1.02;;;20.00;69.50;;;;;;5115148;27;20032;-64
2022/07/14 00:55:32;;;;;;;4.95;1.10;;;20.00;69.90;;;;;;5114097;27;20328;-63
2022/07/14 00:57:57;;;;;;;2.53;0.90;;;20.00;69.60;;;;;;5121990;27;20030;-63
2022/07/14 01:00:23;;;;;;;2.08;0.90;;;20.00;69.90;;;;;;5111585;27;20042;-64
2022/07/14 01:02:52;;;;;;;1.23;0.70;;;19.90;70.70;;;;;;5117139;27;20028;-64
2022/07/14 01:05:18;;;;;;;2.38;0.80;;;19.80;72.10;;;;;;5116037;27;20019;-64
2022/07/14 01:07:48;;;;;;;1.85;0.90;;;19.60;72.30;;;;;;5114020;27;20328;-64
2022/07/14 01:10:13;;;;;;;1.83;0.70;;;19.50;72.80;;;;;;5111411;27;20092;-64
2022/07/14 01:12:47;;;;;;;4.90;1.13;;;19.40;73.70;;;;;;5117793;27;20031;-64
2022/07/14 01:15:20;;;;;;;3.40;1.00;;;19.30;74.10;;;;;;5109597;27;20078;-64
2022/07/14 01:17:49;;;;;;;2.05;1.08;;;19.20;73.40;;;;;;5117944;27;20023;-64
2022/07/14 01:20:16;;;;;;;2.42;0.90;;;19.20;71.80;;;;;;5110549;28;20456;-64
2022/07/14 01:22:42;;;;;;;3.08;1.10;;;19.20;73.00;;;;;;5105020;28;20369;-64
2022/07/14 01:25:09;;;;;;;3.15;1.05;;;19.00;74.00;;;;;;5113278;27;20027;-64
2022/07/14 01:27:35;;;;;;;2.50;0.90;;;18.90;73.00;;;;;;5119802;27;20047;-64
2022/07/14 01:30:01;;;;;;;2.53;1.10;;;18.80;74.00;;;;;;5110913;27;20047;-64
2022/07/14 01:32:27;;;;;;;1.85;0.88;;;18.70;74.70;;;;;;5114365;28;20023;-64
2022/07/14 01:34:52;;;;;;;1.40;0.80;;;18.60;74.50;;;;;;5108355;27;20032;-64
2022/07/14 01:37:19;;;;;;;2.20;0.98;;;18.50;73.90;;;;;;5103701;28;20329;-64
2022/07/14 01:39:45;;;;;;;5.35;1.00;;;18.60;73.70;;;;;;5108133;27;20080;-64
2022/07/14 01:42:13;;;;;;;3.28;1.00;;;18.50;74.70;;;;;;5114699;27;20027;-64
2022/07/14 01:44:39;;;;;;;3.10;1.13;;;18.60;73.70;;;;;;5120119;27;20066;-64
2022/07/14 01:47:08;;;;;;;4.78;1.13;;;18.60;74.50;;;;;;5116338;27;20023;-64
2022/07/14 01:49:34;;;;;;;1.98;0.95;;;18.50;74.90;;;;;;5109982;27;21746;-64
2022/07/14 01:51:59;;;;;;;2.65;1.08;;;18.50;74.00;;;;;;5097984;28;20066;-63
2022/07/14 01:54:25;;;;;;;1.60;0.90;;;18.70;73.70;;;;;;5093798;28;20316;-63
2022/07/14 01:56:53;;;;;;;4.28;1.30;;;18.60;74.20;;;;;;5108820;27;20027;-63
2022/07/14 01:59:19;;;;;;;2.13;1.00;;;18.70;73.10;;;;;;5111993;27;20031;-63
2022/07/14 02:01:46;;;;;;;2.08;0.80;;;18.80;72.60;;;;;;5109832;27;20413;-63
2022/07/14 02:04:17;;;;;;;1.83;0.80;;;18.90;71.80;;;;;;5105731;27;20107;-64
2022/07/14 02:06:43;;;;;;;2.40;1.08;;;18.90;74.80;;;;;;5111364;27;20027;-65
2022/07/14 02:09:09;;;;;;;3.85;1.00;;;18.70;74.50;;;;;;5114380;27;20026;-65
2022/07/14 02:14:19;;;;;;;;;;;18.70;74.50;;;;;;5111943;27;20126;-65
2022/07/14 02:16:48;;;;;;;2.17;1.00;;;18.60;75.10;;;;;;5106117;28;20003;-64
2022/07/14 02:19:14;;;;;;;4.53;1.15;;;18.60;74.70;;;;;;5110385;27;20068;-64
2022/07/14 02:21:40;;;;;;;3.05;1.10;;;18.50;75.30;;;;;;5105864;27;20107;-64
2022/07/14 02:24:08;;;;;;;3.28;1.20;;;18.50;75.00;;;;;;5107395;28;20026;-64
2022/07/14 02:26:34;;;;;;;3.47;1.60;;;18.50;74.90;;;;;;5113486;28;20108;-64
2022/07/14 02:29:00;;;;;;;3.45;1.10;;;18.70;73.10;;;;;;5110896;27;20431;-64
2022/07/14 02:31:28;;;;;;;3.05;1.10;;;18.80;72.40;;;;;;5104649;27;20107;-65
2022/07/14 02:33:54;;;;;;;3.05;1.00;;;18.90;72.10;;;;;;5111424;28;20497;-64
2022/07/14 02:36:20;;;;;;;3.78;0.90;;;18.80;73.30;;;;;;5112183;27;20059;-64
2022/07/14 02:38:45;;;;;;;2.47;1.13;;;18.70;73.80;;;;;;5112621;28;20027;-64
2022/07/14 02:41:11;;;;;;;3.63;1.05;;;18.70;73.70;;;;;;5109916;27;20351;-64
2022/07/14 02:43:37;;;;;;;3.53;1.02;;;18.70;73.80;;;;;;5113757;27;20036;-64
2022/07/14 02:46:03;;;;;;;3.97;1.20;;;18.80;73.20;;;;;;5110314;28;20497;-64
2022/07/14 02:48:29;;;;;;;2.15;1.15;;;18.90;73.10;;;;;;5113837;27;20031;-64
2022/07/14 02:51:05;;;;;;;1.80;0.90;;;18.90;72.60;;;;;;5111335;27;20302;-63
2022/07/14 02:53:32;;;;;;;4.07;1.00;;;19.00;72.50;;;;;;5107759;27;20070;-63
2022/07/14 02:55:58;;;;;;;4.22;1.20;;;18.90;73.10;;;;;;5106951;27;20476;-64
2022/07/14 02:58:24;;;;;;;2.47;1.10;;;18.80;73.30;;;;;;5108957;28;20152;-63
2022/07/14 03:00:51;;;;;;;3.28;0.90;;;18.80;73.50;;;;;;5107649;28;20097;-63
2022/07/14 03:03:17;;;;;;;5.88;1.10;;;18.70;73.80;;;;;;5112537;28;20024;-63
2022/07/14 03:05:43;;;;;;;2.95;1.00;;;18.60;74.10;;;;;;5107775;27;20154;-64
2022/07/14 03:08:09;;;;;;;3.95;1.10;;;18.50;74.20;;;;;;5118043;27;20055;-64
2022/07/14 03:10:35;;;;;;;2.80;1.00;;;18.50;74.50;;;;;;5101204;27;20442;-63
2022/07/14 03:13:02;;;;;;;2.55;1.08;;;18.50;74.40;;;;;;5098165;27;20040;-64
2022/07/14 03:15:28;;;;;;;1.80;1.00;;;18.60;74.00;;;;;;5109029;28;20467;-64
2022/07/14 03:17:53;;;;;;;2.65;1.13;;;18.50;74.90;;;;;;5108535;28;20047;-64
2022/07/14 03:20:19;;;;;;;2.85;1.10;;;18.50;74.50;;;;;;5110926;28;20085;-63
2022/07/14 03:22:45;;;;;;;2.05;1.00;;;18.40;75.30;;;;;;5114804;27;20107;-63
2022/07/14 03:25:12;;;;;;;2.17;1.00;;;18.30;75.40;;;;;;5105947;27;20039;-65
2022/07/14 03:27:38;;;;;;;2.08;1.00;;;18.30;74.90;;;;;;5110708;27;20053;-64
2022/07/14 03:30:08;;;;;;;2.70;1.10;;;18.30;75.30;;;;;;5099887;28;20367;-64
2022/07/14 03:32:34;;;;;;;3.15;1.10;;;18.30;76.10;;;;;;5110676;28;20024;-64
2022/07/14 03:35:03;;;;;;;4.93;1.40;;;18.30;75.40;;;;;;5103212;28;20019;-64
2022/07/14 03:37:29;;;;;;;4.07;1.30;;;18.40;74.90;;;;;;5114268;28;20046;-64
2022/07/14 03:39:55;;;;;;;2.20;1.00;;;18.40;74.70;;;;;;5110179;28;20072;-64
2022/07/14 03:42:21;;;;;;;6.10;1.17;;;18.30;75.90;;;;;;5107003;28;21539;-64
2022/07/14 03:44:48;;;;;;;5.45;1.20;;;18.10;76.60;;;;;;5103139;28;20336;-64
2022/07/14 03:47:14;;;;;;;3.42;1.23;;;18.10;76.20;;;;;;5109700;28;20051;-63
2022/07/14 03:49:40;;;;;;;3.75;1.00;;;18.10;76.30;;;;;;5113205;28;20024;-63
2022/07/14 03:52:06;;;;;;;2.28;1.00;;;18.10;76.00;;;;;;5110737;28;20059;-64
2022/07/14 03:54:32;;;;;;;3.90;1.10;;;18.20;75.60;;;;;;5114725;28;20034;-63
2022/07/14 03:56:57;;;;;;;2.60;1.10;;;18.30;74.80;;;;;;5109537;28;20020;-64
2022/07/14 03:59:23;;;;;;;1.92;1.00;;;18.30;75.70;;;;;;5110313;28;20369;-64
2022/07/14 04:01:49;;;;;;;2.53;1.02;;;18.30;75.10;;;;;;5110297;28;20035;-63
2022/07/14 04:04:14;;;;;;;2.22;1.08;;;18.40;74.60;;;;;;5110375;28;20058;-64
2022/07/14 04:06:40;;;;;;;2.72;1.00;;;18.50;75.00;;;;;;5102900;28;20344;-64
2022/07/14 04:09:06;;;;;;;2.22;1.05;;;18.60;74.10;;;;;;5109589;28;20028;-63
2022/07/14 04:11:32;;;;;;;1.85;0.93;;;18.70;73.70;;;;;;5112268;27;20034;-62
2022/07/14 04:13:58;;;;;;;5.05;1.20;;;18.80;73.30;;;;;;5112894;27;20413;-64
2022/07/14 04:16:24;;;;;;;4.03;1.10;;;18.80;74.70;;;;;;5109793;27;20039;-64
2022/07/14 04:18:50;;;;;;;3.08;1.13;;;18.90;74.00;;;;;;5116622;27;20080;-64
2022/07/14 04:21:16;;;;;;;3.90;1.63;;;18.90;73.10;;;;;;5113821;27;20127;-63
2022/07/14 04:23:41;;;;;;;3.65;1.30;;;19.00;73.90;;;;;;5110138;27;20023;-63
2022/07/14 04:26:07;;;;;;;4.05;1.40;;;19.00;74.40;;;;;;5114320;27;20020;-64
2022/07/14 04:28:35;;;;;;;2.33;1.10;;;19.00;75.00;;;;;;5111939;27;20024;-64
2022/07/14 04:31:02;;;;;;;2.50;1.10;;;18.90;75.70;;;;;;5110901;27;20016;-64
2022/07/14 04:33:27;;;;;;;4.68;1.25;;;18.90;76.40;;;;;;5114359;27;20024;-64
2022/07/14 04:35:53;;;;;;;2.08;1.00;;;18.90;75.70;;;;;;5112247;27;20032;-64
2022/07/14 04:38:18;;;;;;;3.00;1.25;;;18.90;76.90;;;;;;5113051;28;20088;-64
2022/07/14 04:40:52;;;;;;;4.70;1.10;;;18.90;76.80;;;;;;5118723;27;20024;-64
2022/07/14 04:43:18;;;;;;;3.83;1.07;;;19.00;75.90;;;;;;5106198;28;20028;-63
2022/07/14 04:45:45;;;;;;;4.20;1.13;;;19.10;75.70;;;;;;5118164;27;20551;-63
2022/07/14 04:48:11;;;;;;;2.83;1.10;;;19.20;75.90;;;;;;5114438;27;20337;-63
2022/07/14 04:53:22;;;;;;;5.63;2.58;;;19.40;76.30;;;;;;5114129;28;20038;-63
2022/07/14 04:55:47;;;;;;;15.30;9.55;;;19.40;75.90;;;;;;5119913;27;20024;-63
2022/07/14 04:58:14;;;;;;;10.75;4.50;;;19.50;76.90;;;;;;5109474;27;20027;-65
2022/07/14 05:00:43;;;;;;;5.57;1.77;;;19.40;76.80;;;;;;5109161;27;20051;-65
2022/07/14 05:03:08;;;;;;;5.18;1.38;;;19.50;76.60;;;;;;5112440;27;20073;-64
2022/07/14 05:05:34;;;;;;;6.45;2.28;;;19.70;76.60;;;;;;5113206;28;20350;-65
2022/07/14 05:08:00;;;;;;;5.20;1.65;;;19.90;76.30;;;;;;5115883;28;20125;-64
2022/07/14 05:10:25;;;;;;;6.38;1.75;;;20.00;76.20;;;;;;5115547;28;20023;-65
2022/07/14 05:12:51;;;;;;;5.05;1.27;;;20.10;75.80;;;;;;5115510;28;20106;-64
2022/07/14 05:15:17;;;;;;;2.13;0.90;;;20.20;75.10;;;;;;5114442;28;20102;-64
2022/07/14 05:17:43;;;;;;;4.13;1.30;;;20.30;72.70;;;;;;5108881;27;20015;-64
2022/07/14 05:20:09;;;;;;;6.60;2.95;;;20.40;73.80;;;;;;5114549;27;20019;-64
2022/07/14 05:22:41;;;;;;;6.10;2.17;;;20.30;75.40;;;;;;5113406;27;20068;-63
2022/07/14 05:25:14;;;;;;;7.43;2.10;;;20.20;75.40;;;;;;5115683;27;20023;-64
2022/07/14 05:27:41;;;;;;;3.42;1.20;;;19.90;76.00;;;;;;5115892;28;20357;-63
2022/07/14 05:30:08;;;;;;;3.38;1.33;;;19.90;75.20;;;;;;5120770;27;20026;-63
2022/07/14 05:32:37;;;;;;;4.28;1.30;;;20.00;74.80;;;;;;5114120;28;20379;-63
2022/07/14 05:35:04;;;;;;;2.60;1.10;;;20.10;75.40;;;;;;5115062;28;20027;-64
2022/07/14 05:37:30;;;;;;;2.65;1.20;;;20.20;74.00;;;;;;5125561;27;20332;-63
2022/07/14 05:39:56;;;;;;;5.82;2.35;;;20.30;73.70;;;;;;5116435;28;20023;-65
2022/07/14 05:42:22;;;;;;;10.93;6.20;;;20.40;76.00;;;;;;5117011;27;20028;-63
2022/07/14 05:44:49;;;;;;;11.85;6.95;;;20.40;78.60;;;;;;5138083;27;20420;-64
2022/07/14 05:47:15;;;;;;;5.65;3.17;;;20.40;75.60;;;;;;5119788;27;20028;-64
2022/07/14 05:49:42;;;;;;;8.95;5.22;;;20.60;75.70;;;;;;5118154;27;20031;-63
2022/07/14 05:52:11;;;;;;;9.30;3.83;;;20.80;76.50;;;;;;5110443;28;20107;-63
2022/07/14 05:54:38;;;;;;;5.95;1.88;;;20.90;75.70;;;;;;5111543;27;20053;-64
2022/07/14 05:57:04;;;;;;;4.47;1.80;;;21.10;73.60;;;;;;5120725;27;20031;-64
2022/07/14 05:59:30;;;;;;;3.20;1.30;;;21.30;73.80;;;;;;5128993;27;20324;-63
2022/07/14 06:01:55;;;;;;;3.72;1.75;;;21.50;73.70;;;;;;5117547;27;20043;-64
2022/07/14 06:04:21;;;;;;;5.80;2.50;;;21.70;74.30;;;;;;5127344;27;20023;-63
2022/07/14 06:06:48;;;;;;;5.95;2.20;;;21.80;75.30;;;;;;5115375;27;20024;-64
2022/07/14 06:09:15;;;;;;;3.92;1.80;;;21.80;75.90;;;;;;5111745;27;20035;-64
2022/07/14 06:11:41;;;;;;;4.57;1.55;;;21.90;77.00;;;;;;5108256;28;20526;-63
2022/07/14 06:14:07;;;;;;;4.28;1.42;;;21.90;77.00;;;;;;5114110;28;20112;-64
2022/07/14 06:16:36;;;;;;;4.95;1.52;;;22.10;76.70;;;;;;5128073;27;20422;-64
2022/07/14 06:19:03;;;;;;;3.45;1.65;;;22.30;76.00;;;;;;5112456;27;20038;-64
2022/07/14 06:21:28;;;;;;;13.70;5.88;;;22.60;75.00;;;;;;5115394;27;20016;-64
2022/07/14 06:23:54;;;;;;;7.22;3.95;;;22.80;75.30;;;;;;5126318;27;20046;-70
2022/07/14 06:26:20;;;;;;;6.28;2.92;;;22.90;76.70;;;;;;5112886;27;20023;-63
2022/07/14 06:28:46;;;;;;;4.30;1.90;;;23.10;76.40;;;;;;5117120;27;20039;-63
2022/07/14 06:31:13;;;;;;;9.40;1.92;;;23.40;76.80;;;;;;5114018;27;20026;-64
2022/07/14 06:33:39;;;;;;;6.05;2.30;;;23.60;78.60;;;;;;5117470;27;20302;-63
2022/07/14 06:36:06;;;;;;;4.75;1.90;;;23.60;78.40;;;;;;5118620;27;20026;-63
2022/07/14 06:38:32;;;;;;;5.90;1.75;;;23.80;76.70;;;;;;5133624;27;20106;-64
2022/07/14 06:40:58;;;;;;;4.82;1.90;;;24.20;77.30;;;;;;5120483;27;20495;-63
2022/07/14 06:43:23;;;;;;;5.05;1.38;;;24.40;76.10;;;;;;5117223;27;20110;-62
2022/07/14 06:45:49;;;;;;;3.03;1.15;;;24.50;74.30;;;;;;5114991;27;20046;-63
2022/07/14 06:48:15;;;;;;;4.47;1.27;;;24.70;75.20;;;;;;5120127;27;20057;-63
2022/07/14 06:50:41;;;;;;;4.93;1.67;;;25.10;73.50;;;;;;5116723;28;20106;-64
2022/07/14 06:53:08;;;;;;;6.57;2.30;;;25.30;72.50;;;;;;5116831;28;20023;-63
2022/07/14 06:55:33;;;;;;;4.55;2.30;;;25.50;72.60;;;;;;5112993;27;20055;-63
2022/07/14 06:57:59;;;;;;;5.15;2.00;;;25.70;71.70;;;;;;5117623;27;20074;-64
2022/07/14 07:00:25;;;;;;;8.07;2.20;;;26.00;69.30;;;;;;5112891;27;20055;-63
2022/07/14 07:02:50;;;;;;;3.67;1.60;;;26.30;70.00;;;;;;5116983;27;20058;-64
2022/07/14 07:08:01;;;;;;;2.60;1.40;;;26.70;66.40;;;;;;5131006;27;20388;-64
2022/07/14 07:10:27;;;;;;;4.75;1.35;;;27.00;64.50;;;;;;5119650;27;20095;-64
2022/07/14 07:12:53;;;;;;;4.25;1.55;;;27.10;61.70;;;;;;5129241;27;20023;-64
2022/07/14 07:15:19;;;;;;;3.38;1.40;;;27.10;61.90;;;;;;5118644;27;20030;-64
2022/07/14 07:17:45;;;;;;;2.92;1.30;;;27.20;61.10;;;;;;5123017;27;20027;-64
2022/07/14 07:20:11;;;;;;;5.50;1.40;;;27.30;62.10;;;;;;5123935;27;20077;-64
2022/07/14 07:22:40;;;;;;;4.28;1.50;;;27.30;63.10;;;;;;5114771;27;20409;-64
2022/07/14 07:25:09;;;;;;;5.70;1.33;;;27.40;63.60;;;;;;5116183;27;20016;-64
2022/07/14 07:27:35;;;;;;;4.60;1.52;;;27.20;63.90;;;;;;5126580;27;20027;-64
2022/07/14 07:30:02;;;;;;;3.28;1.50;;;27.10;65.00;;;;;;5111072;28;20042;-64
2022/07/14 07:32:31;;;;;;;3.53;1.30;;;27.10;65.80;;;;;;5117868;27;20152;-65
2022/07/14 07:34:56;;;;;;;3.50;1.45;;;27.20;65.90;;;;;;5114224;28;20324;-64
2022/07/14 07:37:25;;;;;;;6.75;1.83;;;27.70;66.10;;;;;;5125414;28;20015;-64
2022/07/14 07:39:50;;;;;;;4.18;1.30;;;28.80;64.50;;;;;;5118246;28;20076;-64
2022/07/14 07:42:16;;;;;;;4.88;1.23;;;29.90;63.10;;;;;;5116086;28;20661;-64
2022/07/14 07:44:42;;;;;;;4.20;1.27;;;31.10;61.30;;;;;;5123225;27;20123;-64
2022/07/14 07:47:07;;;;;;;4.50;1.25;;;31.20;58.90;;;;;;5121075;27;20402;-64
2022/07/14 07:49:33;;;;;;;8.63;1.60;;;30.70;59.40;;;;;;5119745;27;20028;-63
2022/07/14 07:52:00;;;;;;;5.80;1.40;;;30.60;59.10;;;;;;5120125;27;20024;-65
2022/07/14 07:54:27;;;;;;;3.92;1.33;;;31.00;58.10;;;;;;5119279;27;20024;-65
2022/07/14 07:56:54;;;;;;;11.63;2.10;;;31.40;57.20;;;;;;5119786;27;20053;-64
2022/07/14 07:59:19;;;;;;;3.03;1.20;;;31.30;56.30;;;;;;5122009;27;20024;-64
2022/07/14 08:01:45;;;;;;;5.85;1.50;;;31.60;54.80;;;;;;5119693;27;20046;-65
2022/07/14 08:04:11;;;;;;;7.72;1.40;;;31.80;53.90;;;;;;5118903;27;20019;-65
2022/07/14 08:06:37;;;;;;;5.78;1.58;;;31.90;54.20;;;;;;5120613;27;20083;-65
2022/07/14 08:09:03;;;;;;;4.50;1.33;;;32.00;53.00;;;;;;5118791;27;20568;-65
2022/07/14 08:11:29;;;;;;;3.80;1.38;;;32.20;52.00;;;;;;5119983;27;20027;-63
2022/07/14 08:13:55;;;;;;;4.45;1.20;;;32.60;52.20;;;;;;5118653;27;20024;-64
2022/07/14 08:16:20;;;;;;;7.47;1.55;;;33.20;50.90;;;;;;5117555;27;20031;-64
2022/07/14 08:18:47;;;;;;;6.20;1.45;;;33.00;50.40;;;;;;5122105;27;20098;-64
2022/07/14 08:21:13;;;;;;;7.00;1.42;;;32.60;50.10;;;;;;5124990;27;20043;-64
2022/07/14 08:23:39;;;;;;;3.20;1.00;;;31.80;51.70;;;;;;5121239;27;20024;-64
2022/07/14 08:26:05;;;;;;;5.93;1.15;;;31.60;51.40;;;;;;5121516;27;20049;-64
2022/07/14 08:28:30;;;;;;;5.70;1.10;;;31.50;51.60;;;;;;5119579;27;20030;-65
2022/07/14 08:31:01;;;;;;;7.82;1.40;;;31.80;52.00;;;;;;5118181;27;20146;-65
2022/07/14 08:33:26;;;;;;;5.47;1.27;;;32.50;50.60;;;;;;5118101;28;20098;-64
2022/07/14 08:35:56;;;;;;;3.97;1.10;;;33.20;49.10;;;;;;5118137;28;20103;-63
2022/07/14 08:38:21;;;;;;;9.40;1.33;;;33.40;48.60;;;;;;5119554;28;20115;-65
2022/07/14 08:40:48;;;;;;;7.43;1.60;;;33.60;49.30;;;;;;5112650;27;20110;-66
2022/07/14 08:43:15;;;;;;;4.28;1.42;;;34.30;48.10;;;;;;5113630;28;20097;-64
2022/07/14 08:45:42;;;;;;;5.65;1.40;;;33.90;47.70;;;;;;5106850;28;20051;-64
2022/07/14 08:48:09;;;;;;;3.60;1.30;;;33.00;50.00;;;;;;5124617;27;20034;-64
2022/07/14 08:50:37;;;;;;;3.55;1.10;;;33.20;48.20;;;;;;5113394;27;20029;-65
2022/07/14 08:53:03;;;;;;;6.65;1.30;;;33.00;50.60;;;;;;5112685;28;20431;-64
2022/07/14 08:55:30;;;;;;;4.60;1.15;;;33.20;50.20;;;;;;5116854;28;20032;-63
2022/07/14 08:57:56;;;;;;;4.78;1.17;;;33.20;49.70;;;;;;5118151;28;20042;-63
2022/07/14 09:00:25;;;;;;;4.05;1.00;;;33.60;49.70;;;;;;5112239;27;20317;-65
2022/07/14 09:02:53;;;;;;;4.40;1.20;;;34.30;48.40;;;;;;5113911;28;20102;-66
2022/07/14 09:05:19;;;;;;;2.80;1.30;;;34.80;46.90;;;;;;5118890;28;20293;-65
2022/07/14 09:07:45;;;;;;;3.92;1.13;;;34.60;47.60;;;;;;5119840;27;20020;-63
2022/07/14 09:10:17;;;;;;;6.15;1.48;;;34.40;46.10;;;;;;5118762;27;20020;-63
2022/07/14 09:12:44;;;;;;;2.53;1.27;;;33.70;45.60;;;;;;5118263;28;20286;-64
2022/07/14 09:18:01;;;;;;;4.78;1.02;;;32.90;46.50;;;;;;5131909;27;20022;-64
2022/07/14 09:20:32;;;;;;;5.38;1.45;;;33.00;46.90;;;;;;5118695;28;20073;-63
2022/07/14 09:23:05;;;;;;;9.80;1.20;;;33.30;46.10;;;;;;5116848;28;20065;-65
2022/07/14 09:25:40;;;;;;;6.10;2.58;;;33.40;45.50;;;;;;5114202;28;20107;-65
2022/07/14 09:28:08;;;;;;;11.48;1.63;;;33.70;45.40;;;;;;5117938;27;20127;-64
2022/07/14 09:30:34;;;;;;;4.15;1.50;;;33.50;44.80;;;;;;5117253;28;20045;-65
2022/07/14 09:33:04;;;;;;;3.38;1.40;;;33.70;45.10;;;;;;5117076;28;20016;-65
2022/07/14 09:35:39;;;;;;;5.68;1.52;;;34.10;45.20;;;;;;5116092;27;20103;-64
2022/07/14 09:38:19;;;;;;;6.78;1.10;;;34.30;45.20;;;;;;5117626;27;20031;-63
2022/07/14 09:40:46;;;;;;;5.47;1.33;;;34.30;43.80;;;;;;5115842;28;20020;-63
2022/07/14 09:43:13;;;;;;;5.53;1.30;;;33.80;43.40;;;;;;5116169;28;20047;-65
2022/07/14 09:45:45;;;;;;;7.25;1.30;;;33.20;44.70;;;;;;5116590;27;20050;-64
2022/07/14 09:48:15;;;;;;;4.43;1.08;;;33.40;45.40;;;;;;5115204;27;20067;-65
2022/07/14 09:50:48;;;;;;;7.32;1.27;;;33.60;44.10;;;;;;5114533;28;20106;-63
2022/07/14 09:53:23;;;;;;;3.42;1.30;;;33.40;44.70;;;;;;5121141;27;20081;-65
2022/07/14 09:56:08;;;;;;;5.95;1.10;;;33.40;44.40;;;;;;5115780;28;20024;-65
2022/07/14 09:58:54;;;;;;;4.13;1.00;;;33.60;45.10;;;;;;5120832;27;20389;-64
2022/07/14 10:01:21;;;;;;;2.40;1.10;;;34.70;44.60;;;;;;5116822;28;20051;-64
2022/07/14 10:03:48;;;;;;;3.47;1.05;;;35.10;44.60;;;;;;5116618;28;20050;-64
2022/07/14 10:06:15;;;;;;;2.85;1.10;;;34.70;42.90;;;;;;5117660;27;20034;-63
2022/07/14 10:09:00;;;;;;;3.72;1.08;;;33.70;42.80;;;;;;5129969;27;20027;-64
2022/07/14 10:11:29;;;;;;;6.55;1.52;;;33.30;43.90;;;;;;5132668;27;20069;-64
2022/07/14 10:13:55;;;;;;;2.90;1.30;;;33.40;43.90;;;;;;5119024;27;20058;-64
2022/07/14 10:16:21;;;;;;;4.03;1.50;;;33.10;43.60;;;;;;5120079;27;20051;-64
2022/07/14 10:18:49;;;;;;;5.43;1.20;;;33.10;43.80;;;;;;5118018;27;20106;-64
2022/07/14 10:21:16;;;;;;;5.18;1.42;;;32.80;43.60;;;;;;5116063;27;20435;-63
2022/07/14 10:23:42;;;;;;;4.57;1.58;;;32.90;44.10;;;;;;5121255;27;20073;-63
2022/07/14 10:26:10;;;;;;;4.47;1.20;;;32.80;43.60;;;;;;5111590;28;20019;-64
2022/07/14 10:28:37;;;;;;;2.95;1.35;;;33.20;43.60;;;;;;5116258;28;20035;-64
2022/07/14 10:31:27;;;;;;;4.07;1.20;;;33.40;42.70;;;;;;5117156;28;20104;-65
2022/07/14 10:34:25;;;;;;;3.50;1.15;;;33.70;43.40;;;;;;5106507;28;20104;-63
2022/07/14 10:36:59;;;;;;;3.17;1.10;;;34.10;43.40;;;;;;5130321;27;20031;-63
2022/07/14 10:39:43;;;;;;;;;;;34.00;42.00;;;;;;5114027;27;20028;-63
2022/07/14 10:42:15;;;;;;;;;;;33.50;42.80;;;;;;5114716;27;20002;-63
2022/07/14 10:44:45;;;;;;;3.65;1.30;;;33.40;41.30;;;;;;5115438;28;20013;-63
2022/07/14 10:47:16;;;;;;;3.10;1.27;;;33.40;42.00;;;;;;5121431;27;20326;-64
2022/07/14 10:50:04;;;;;;;4.55;1.25;;;33.50;42.10;;;;;;5116892;27;20076;-63
2022/07/14 10:52:32;;;;;;;6.07;1.48;;;33.10;41.60;;;;;;5116330;27;20034;-63
2022/07/14 10:55:22;;;;;;;2.22;1.25;;;33.10;42.20;;;;;;5126936;27;20026;-65
2022/07/14 10:58:04;;;;;;;4.97;1.20;;;33.20;41.80;;;;;;5101767;28;20426;-64
2022/07/14 11:00:58;;;;;;;5.93;1.50;;;33.30;40.90;;;;;;5116768;28;20027;-65
2022/07/14 11:03:44;;;;;;;3.28;1.40;;;33.00;41.80;;;;;;5114020;28;20463;-63
2022/07/14 11:06:11;;;;;;;4.78;1.25;;;32.90;41.40;;;;;;5116665;28;20024;-65
2022/07/14 11:08:42;;;;;;;3.75;1.40;;;32.90;41.40;;;;;;5116567;28;20028;-63
2022/07/14 11:11:23;;;;;;;5.20;1.27;;;32.80;41.50;;;;;;5115381;28;20073;-64
2022/07/14 11:14:10;;;;;;;4.10;1.40;;;33.00;42.00;;;;;;5115896;28;20088;-64
2022/07/14 11:16:47;;;;;;;4.45;1.40;;;33.20;43.20;;;;;;5116572;28;20077;-65
2022/07/14 11:19:33;;;;;;;3.55;1.17;;;33.60;42.10;;;;;;5115016;28;20032;-65
2022/07/14 11:22:23;;;;;;;4.50;1.50;;;33.60;41.80;;;;;;5114959;28;20027;-65
2022/07/14 11:24:56;;;;;;;3.33;1.20;;;33.30;41.40;;;;;;5105432;28;20114;-64
2022/07/14 11:27:32;;;;;;;2.60;1.30;;;33.10;41.00;;;;;;5116408;28;20027;-65
2022/07/14 11:30:25;;;;;;;3.78;1.20;;;33.30;41.70;;;;;;5116523;28;20028;-64
2022/07/14 11:33:31;;;;;;;6.43;1.20;;;33.30;40.90;;;;;;5116572;28;20032;-64
2022/07/14 11:36:17;;;;;;;4.75;1.30;;;33.30;41.60;;;;;;5075204;28;20080;-64
2022/07/14 11:38:43;;;;;;;5.43;1.40;;;33.40;41.60;;;;;;5116640;28;20099;-64
2022/07/14 11:41:12;;;;;;;3.95;1.70;;;33.70;42.10;;;;;;5115199;28;20435;-64
2022/07/14 11:43:39;;;;;;;4.32;1.33;;;34.10;41.20;;;;;;5116542;28;20028;-64
2022/07/14 11:46:09;;;;;;;3.25;1.33;;;33.60;41.70;;;;;;5116154;28;20044;-64
2022/07/14 11:48:48;;;;;;;5.13;1.42;;;33.10;42.50;;;;;;5116413;28;20323;-64
2022/07/14 11:51:25;;;;;;;2.65;1.10;;;32.80;42.10;;;;;;5115446;28;20522;-64
2022/07/14 11:53:55;;;;;;;7.05;1.45;;;33.30;42.50;;;;;;5115830;28;20038;-65
2022/07/14 11:56:23;;;;;;;6.38;1.48;;;33.80;41.80;;;;;;5116257;28;20028;-64
2022/07/14 11:58:51;;;;;;;4.65;1.38;;;34.00;40.80;;;;;;5116359;28;20019;-64
2022/07/14 12:01:16;;;;;;;5.53;1.60;;;34.00;41.80;;;;;;5116308;28;20106;-64
2022/07/14 12:03:43;;;;;;;5.05;1.30;;;33.90;41.50;;;;;;5116248;28;20165;-65
2022/07/14 12:06:09;;;;;;;2.60;1.15;;;33.20;41.80;;;;;;5114509;28;20064;-64
2022/07/14 12:08:39;;;;;;;5.20;1.13;;;32.30;41.30;;;;;;5116055;28;20020;-64
2022/07/14 12:11:11;;;;;;;6.40;1.50;;;31.80;42.70;;;;;;5114906;28;20324;-64
2022/07/14 12:13:53;;;;;;;7.95;1.42;;;32.00;42.30;;;;;;5116184;28;20026;-64
2022/07/14 12:16:20;;;;;;;4.07;1.20;;;33.00;41.80;;;;;;5116073;28;20026;-64
2022/07/14 12:18:50;;;;;;;2.85;1.25;;;33.40;41.70;;;;;;5116092;28;20024;-64
2022/07/14 12:21:16;;;;;;;4.78;1.40;;;33.40;41.00;;;;;;5115406;28;20028;-64
2022/07/14 12:23:55;;;;;;;2.55;1.17;;;33.80;41.30;;;;;;5116051;28;20035;-64
2022/07/14 12:26:23;;;;;;;4.13;1.00;;;34.20;40.30;;;;;;5115965;28;20023;-64
2022/07/14 12:28:57;;;;;;;1.33;0.90;;;35.00;40.90;;;;;;5116017;28;20435;-65
2022/07/14 12:31:23;;;;;;;5.45;1.25;;;35.40;39.00;;;;;;5119739;28;20076;-64
2022/07/14 12:33:51;;;;;;;2.85;1.42;;;34.90;38.50;;;;;;5119900;28;20024;-64
2022/07/14 12:36:26;;;;;;;4.25;1.17;;;34.10;39.50;;;;;;5119008;28;20022;-64
2022/07/14 12:38:53;;;;;;;4.75;1.20;;;34.20;40.10;;;;;;5118625;28;20088;-64
2022/07/14 12:41:21;;;;;;;4.45;1.00;;;33.90;39.70;;;;;;5119588;28;20019;-64
2022/07/14 12:43:47;;;;;;;3.53;1.10;;;34.10;40.80;;;;;;5119574;28;20323;-64
2022/07/14 12:46:18;;;;;;;4.72;1.20;;;34.80;40.40;;;;;;5119419;28;20048;-63
2022/07/14 12:48:49;;;;;;;3.97;1.10;;;35.10;39.90;;;;;;5118283;28;20053;-64
2022/07/14 12:51:19;;;;;;;2.38;0.95;;;34.80;39.40;;;;;;5119400;28;20478;-64
2022/07/14 12:54:03;;;;;;;4.25;1.00;;;34.70;39.30;;;;;;5119799;28;20513;-64
2022/07/14 12:56:44;;;;;;;4.53;1.20;;;34.90;40.00;;;;;;5119353;28;20027;-64
2022/07/14 12:59:13;;;;;;;6.10;1.23;;;35.10;39.50;;;;;;5119326;28;20714;-65
2022/07/14 13:01:55;;;;;;;5.63;1.60;;;34.90;39.30;;;;;;5119324;28;20024;-64
2022/07/14 13:04:32;;;;;;;3.60;1.30;;;34.80;39.70;;;;;;5118480;28;20085;-65
2022/07/14 13:07:01;;;;;;;2.60;1.17;;;34.70;40.30;;;;;;5118103;28;20020;-64